sensor_id;sensor_type;location;lat;lon;timestamp;pressure;altitude;pressure_sealevel;temperature;humidity
7524;BME280;3803;51.666;7.630;2023-03-01T00:00:19;102462.13;;;-1.41;55.86
7524;BME280;3803;51.666;7.630;2023-03-01T00:00:40;102462.56;;;-1.45;55.60
7524;BME280;3803;51.666;7.630;2023-03-01T00:01:05;102477.25;;;-1.35;55.79
7524;BME280;3803;51.666;7.630;2023-03-01T00:01:28;102477.84;;;-1.37;55.84
7524;BME280;3803;51.666;7.630;2023-03-01T00:01:49;102466.94;;;-1.44;55.74
7524;BME280;3803;51.666;7.630;2023-03-01T00:02:10;102476.91;;;-1.38;55.92
7524;BME280;3803;51.666;7.630;2023-03-01T00:02:30;102455.16;;;-1.50;55.78
7524;BME280;3803;51.666;7.630;2023-03-01T00:02:51;102458.03;;;-1.47;55.80
7524;BME280;3803;51.666;7.630;2023-03-01T00:03:12;102474.03;;;-1.41;55.93
7524;BME280;3803;51.666;7.630;2023-03-01T00:03:33;102477.50;;;-1.41;56.03
7524;BME280;3803;51.666;7.630;2023-03-01T00:03:55;102456.06;;;-1.50;55.78
7524;BME280;3803;51.666;7.630;2023-03-01T00:04:16;102461.53;;;-1.47;55.96
7524;BME280;3803;51.666;7.630;2023-03-01T00:04:37;102469.09;;;-1.40;56.11
7524;BME280;3803;51.666;7.630;2023-03-01T00:04:57;102468.75;;;-1.43;55.79
7524;BME280;3803;51.666;7.630;2023-03-01T00:05:18;102456.41;;;-1.47;55.73
7524;BME280;3803;51.666;7.630;2023-03-01T00:05:45;102452.75;;;-1.49;56.09
7524;BME280;3803;51.666;7.630;2023-03-01T00:06:06;102458.03;;;-1.47;55.91
7524;BME280;3803;51.666;7.630;2023-03-01T00:06:27;102462.00;;;-1.42;55.93
7524;BME280;3803;51.666;7.630;2023-03-01T00:06:47;102464.22;;;-1.45;55.85
7524;BME280;3803;51.666;7.630;2023-03-01T00:07:08;102461.53;;;-1.47;55.71
7524;BME280;3803;51.666;7.630;2023-03-01T00:07:29;102472.25;;;-1.42;56.05
7524;BME280;3803;51.666;7.630;2023-03-01T00:07:55;102458.78;;;-1.48;55.75
7524;BME280;3803;51.666;7.630;2023-03-01T00:08:16;102468.75;;;-1.43;55.97
7524;BME280;3803;51.666;7.630;2023-03-01T00:08:37;102455.16;;;-1.50;55.76
7524;BME280;3803;51.666;7.630;2023-03-01T00:08:57;102467.53;;;-1.46;55.62
7524;BME280;3803;51.666;7.630;2023-03-01T00:09:18;102460.28;;;-1.50;56.11
7524;BME280;3803;51.666;7.630;2023-03-01T00:09:38;102480.97;;;-1.40;55.89
7524;BME280;3803;51.666;7.630;2023-03-01T00:10:00;102468.28;;;-1.47;56.11
7524;BME280;3803;51.666;7.630;2023-03-01T00:10:21;102463.91;;;-1.48;55.82
7524;BME280;3803;51.666;7.630;2023-03-01T00:10:41;102456.97;;;-1.49;55.69
7524;BME280;3803;51.666;7.630;2023-03-01T00:11:18;102474.22;;;-1.40;55.82
7524;BME280;3803;51.666;7.630;2023-03-01T00:11:40;102459.38;;;-1.51;56.15
7524;BME280;3803;51.666;7.630;2023-03-01T00:12:01;102468.09;;;-1.49;56.10
7524;BME280;3803;51.666;7.630;2023-03-01T00:12:22;102454.41;;;-1.49;55.79
7524;BME280;3803;51.666;7.630;2023-03-01T00:12:42;102459.94;;;-1.54;55.88
7524;BME280;3803;51.666;7.630;2023-03-01T00:13:03;102472.06;;;-1.44;55.88
7524;BME280;3803;51.666;7.630;2023-03-01T00:13:25;102466.00;;;-1.53;56.07
7524;BME280;3803;51.666;7.630;2023-03-01T00:13:47;102467.81;;;-1.52;56.21
7524;BME280;3803;51.666;7.630;2023-03-01T00:14:08;102459.47;;;-1.58;55.86
7524;BME280;3803;51.666;7.630;2023-03-01T00:14:29;102462.94;;;-1.58;56.00
7524;BME280;3803;51.666;7.630;2023-03-01T00:14:50;102468.56;;;-1.53;56.26
7524;BME280;3803;51.666;7.630;2023-03-01T00:15:11;102463.13;;;-1.56;56.17
7524;BME280;3803;51.666;7.630;2023-03-01T00:15:32;102476.53;;;-1.50;56.11
7524;BME280;3803;51.666;7.630;2023-03-01T00:15:52;102477.47;;;-1.49;56.24
7524;BME280;3803;51.666;7.630;2023-03-01T00:16:16;102464.00;;;-1.56;56.26
7524;BME280;3803;51.666;7.630;2023-03-01T00:16:40;102453.28;;;-1.60;56.15
7524;BME280;3803;51.666;7.630;2023-03-01T00:17:01;102456.91;;;-1.58;56.37
7524;BME280;3803;51.666;7.630;2023-03-01T00:17:22;102457.66;;;-1.59;56.19
7524;BME280;3803;51.666;7.630;2023-03-01T00:17:42;102456.91;;;-1.58;56.17
7524;BME280;3803;51.666;7.630;2023-03-01T00:18:03;102464.00;;;-1.56;55.99
7524;BME280;3803;51.666;7.630;2023-03-01T00:18:23;102459.81;;;-1.55;56.23
7524;BME280;3803;51.666;7.630;2023-03-01T00:18:44;102462.38;;;-1.55;56.13
7524;BME280;3803;51.666;7.630;2023-03-01T00:19:06;102458.41;;;-1.60;56.10
7524;BME280;3803;51.666;7.630;2023-03-01T00:19:27;102465.69;;;-1.56;56.11
7524;BME280;3803;51.666;7.630;2023-03-01T00:19:48;102451.13;;;-1.64;56.31
7524;BME280;3803;51.666;7.630;2023-03-01T00:20:09;102467.50;;;-1.55;56.07
7524;BME280;3803;51.666;7.630;2023-03-01T00:20:30;102462.94;;;-1.58;56.01
7524;BME280;3803;51.666;7.630;2023-03-01T00:20:54;102461.91;;;-1.60;56.30
7524;BME280;3803;51.666;7.630;2023-03-01T00:21:15;102460.66;;;-1.63;56.10
7524;BME280;3803;51.666;7.630;2023-03-01T00:21:36;102464.13;;;-1.63;56.08
7524;BME280;3803;51.666;7.630;2023-03-01T00:21:56;102460.22;;;-1.59;56.55
7524;BME280;3803;51.666;7.630;2023-03-01T00:22:17;102449.34;;;-1.65;56.48
7524;BME280;3803;51.666;7.630;2023-03-01T00:22:38;102462.03;;;-1.58;56.23
7524;BME280;3803;51.666;7.630;2023-03-01T00:22:59;102473.69;;;-1.53;56.40
7524;BME280;3803;51.666;7.630;2023-03-01T00:23:20;102453.88;;;-1.63;56.40
7524;BME280;3803;51.666;7.630;2023-03-01T00:23:41;102448.44;;;-1.66;56.61
7524;BME280;3803;51.666;7.630;2023-03-01T00:24:02;102461.38;;;-1.64;56.30
7524;BME280;3803;51.666;7.630;2023-03-01T00:24:23;102462.47;;;-1.62;56.26
7524;BME280;3803;51.666;7.630;2023-03-01T00:24:44;102459.25;;;-1.69;56.19
7524;BME280;3803;51.666;7.630;2023-03-01T00:25:04;102455.94;;;-1.68;56.42
7524;BME280;3803;51.666;7.630;2023-03-01T00:25:25;102458.50;;;-1.68;56.33
7524;BME280;3803;51.666;7.630;2023-03-01T00:25:46;102451.09;;;-1.73;56.08
7524;BME280;3803;51.666;7.630;2023-03-01T00:26:09;102450.53;;;-1.71;56.62
7524;BME280;3803;51.666;7.630;2023-03-01T00:26:32;102449.59;;;-1.71;56.62
7524;BME280;3803;51.666;7.630;2023-03-01T00:26:54;102466.09;;;-1.60;56.41
7524;BME280;3803;51.666;7.630;2023-03-01T00:27:15;102460.50;;;-1.65;56.46
7524;BME280;3803;51.666;7.630;2023-03-01T00:27:36;102468.66;;;-1.60;56.45
7524;BME280;3803;51.666;7.630;2023-03-01T00:27:56;102454.16;;;-1.69;56.60
7524;BME280;3803;51.666;7.630;2023-03-01T00:28:17;102445.06;;;-1.74;56.70
7524;BME280;3803;51.666;7.630;2023-03-01T00:28:39;102448.72;;;-1.72;56.62
7524;BME280;3803;51.666;7.630;2023-03-01T00:29:01;102456.88;;;-1.67;56.50
7524;BME280;3803;51.666;7.630;2023-03-01T00:29:25;102471.97;;;-1.61;56.29
7524;BME280;3803;51.666;7.630;2023-03-01T00:29:45;102464.69;;;-1.65;56.40
7524;BME280;3803;51.666;7.630;2023-03-01T00:30:07;102456.53;;;-1.70;56.37
7524;BME280;3803;51.666;7.630;2023-03-01T00:30:27;102447.31;;;-1.77;56.32
7524;BME280;3803;51.666;7.630;2023-03-01T00:30:48;102457.44;;;-1.70;56.22
7524;BME280;3803;51.666;7.630;2023-03-01T00:31:12;102452.00;;;-1.73;56.27
7524;BME280;3803;51.666;7.630;2023-03-01T00:31:33;102450.63;;;-1.78;56.43
7524;BME280;3803;51.666;7.630;2023-03-01T00:31:53;102463.31;;;-1.71;56.41
7524;BME280;3803;51.666;7.630;2023-03-01T00:32:14;102449.69;;;-1.78;56.19
7524;BME280;3803;51.666;7.630;2023-03-01T00:32:34;102454.06;;;-1.77;56.36
7524;BME280;3803;51.666;7.630;2023-03-01T00:32:55;102449.56;;;-1.80;56.37
7524;BME280;3803;51.666;7.630;2023-03-01T00:33:17;102447.59;;;-1.83;56.63
7524;BME280;3803;51.666;7.630;2023-03-01T00:33:39;102471.00;;;-1.71;56.83
7524;BME280;3803;51.666;7.630;2023-03-01T00:34:02;102459.19;;;-1.77;56.72
7524;BME280;3803;51.666;7.630;2023-03-01T00:34:23;102449.22;;;-1.83;56.60
7524;BME280;3803;51.666;7.630;2023-03-01T00:34:44;102461.59;;;-1.79;56.87
7524;BME280;3803;51.666;7.630;2023-03-01T00:35:14;102457.97;;;-1.81;56.73
7524;BME280;3803;51.666;7.630;2023-03-01T00:35:35;102463.41;;;-1.78;56.50
7524;BME280;3803;51.666;7.630;2023-03-01T00:35:58;102444.69;;;-1.86;56.79
7524;BME280;3803;51.666;7.630;2023-03-01T00:36:18;102459.06;;;-1.79;56.80
7524;BME280;3803;51.666;7.630;2023-03-01T00:36:40;102462.00;;;-1.83;56.82
7524;BME280;3803;51.666;7.630;2023-03-01T00:37:00;102463.41;;;-1.78;56.90
7524;BME280;3803;51.666;7.630;2023-03-01T00:37:25;102457.97;;;-1.81;56.66
7524;BME280;3803;51.666;7.630;2023-03-01T00:37:45;102462.34;;;-1.80;56.72
7524;BME280;3803;51.666;7.630;2023-03-01T00:38:06;102466.13;;;-1.76;56.75
7524;BME280;3803;51.666;7.630;2023-03-01T00:38:27;102469.03;;;-1.73;56.77
7524;BME280;3803;51.666;7.630;2023-03-01T00:38:48;102450.38;;;-1.88;56.64
7524;BME280;3803;51.666;7.630;2023-03-01T00:39:13;102449.97;;;-1.84;56.90
7524;BME280;3803;51.666;7.630;2023-03-01T00:39:34;102459.47;;;-1.83;56.57
7524;BME280;3803;51.666;7.630;2023-03-01T00:39:54;102447.69;;;-1.90;56.53
7524;BME280;3803;51.666;7.630;2023-03-01T00:40:15;102443.13;;;-1.92;56.88
7524;BME280;3803;51.666;7.630;2023-03-01T00:40:36;102454.91;;;-1.86;57.06
7524;BME280;3803;51.666;7.630;2023-03-01T00:41:06;102452.78;;;-1.90;56.87
7524;BME280;3803;51.666;7.630;2023-03-01T00:41:27;102456.91;;;-1.83;57.07
7524;BME280;3803;51.666;7.630;2023-03-01T00:41:48;102438.91;;;-1.92;57.18
7524;BME280;3803;51.666;7.630;2023-03-01T00:42:09;102436.22;;;-1.93;57.05
7524;BME280;3803;51.666;7.630;2023-03-01T00:42:29;102456.16;;;-1.82;56.79
7524;BME280;3803;51.666;7.630;2023-03-01T00:42:50;102455.09;;;-1.84;56.83
7524;BME280;3803;51.666;7.630;2023-03-01T00:43:11;102445.25;;;-1.88;56.85
7524;BME280;3803;51.666;7.630;2023-03-01T00:43:31;102438.31;;;-1.89;56.76
7524;BME280;3803;51.666;7.630;2023-03-01T00:43:56;102445.59;;;-1.85;56.92
7524;BME280;3803;51.666;7.630;2023-03-01T00:44:17;102454.34;;;-1.83;56.95
7524;BME280;3803;51.666;7.630;2023-03-01T00:44:38;102442.56;;;-1.90;56.96
7524;BME280;3803;51.666;7.630;2023-03-01T00:44:58;102450.38;;;-1.88;57.31
7524;BME280;3803;51.666;7.630;2023-03-01T00:45:19;102456.72;;;-1.85;57.09
7524;BME280;3803;51.666;7.630;2023-03-01T00:45:39;102435.72;;;-1.98;56.82
7524;BME280;3803;51.666;7.630;2023-03-01T00:46:01;102440.41;;;-1.94;57.19
7524;BME280;3803;51.666;7.630;2023-03-01T00:46:25;102458.41;;;-1.85;56.87
7524;BME280;3803;51.666;7.630;2023-03-01T00:46:46;102446.75;;;-1.90;57.04
7524;BME280;3803;51.666;7.630;2023-03-01T00:47:06;102437.69;;;-1.96;57.21
7524;BME280;3803;51.666;7.630;2023-03-01T00:47:29;102455.84;;;-1.85;57.18
7524;BME280;3803;51.666;7.630;2023-03-01T00:47:50;102456.41;;;-1.88;57.11
7524;BME280;3803;51.666;7.630;2023-03-01T00:48:11;102437.69;;;-1.96;56.86
7524;BME280;3803;51.666;7.630;2023-03-01T00:48:32;102455.09;;;-1.84;56.88
7524;BME280;3803;51.666;7.630;2023-03-01T00:48:53;102445.25;;;-1.88;57.05
7524;BME280;3803;51.666;7.630;2023-03-01T00:49:15;102450.72;;;-1.85;57.03
7524;BME280;3803;51.666;7.630;2023-03-01T00:49:35;102432.72;;;-1.94;56.82
7524;BME280;3803;51.666;7.630;2023-03-01T00:49:56;102431.84;;;-1.95;56.78
7524;BME280;3803;51.666;7.630;2023-03-01T00:50:17;102435.47;;;-1.92;57.03
7524;BME280;3803;51.666;7.630;2023-03-01T00:50:38;102457.66;;;-1.84;56.96
7524;BME280;3803;51.666;7.630;2023-03-01T00:51:19;102447.69;;;-1.90;56.79
7524;BME280;3803;51.666;7.630;2023-03-01T00:51:40;102439.66;;;-1.93;56.94
7524;BME280;3803;51.666;7.630;2023-03-01T00:52:01;102438.00;;;-1.92;56.96
7524;BME280;3803;51.666;7.630;2023-03-01T00:52:22;102435.88;;;-1.97;57.11
7524;BME280;3803;51.666;7.630;2023-03-01T00:52:42;102444.63;;;-1.95;57.02
7524;BME280;3803;51.666;7.630;2023-03-01T00:53:03;102442.06;;;-1.95;57.10
7524;BME280;3803;51.666;7.630;2023-03-01T00:53:25;102430.03;;;-1.96;57.16
7524;BME280;3803;51.666;7.630;2023-03-01T00:53:46;102438.91;;;-1.92;57.26
7524;BME280;3803;51.666;7.630;2023-03-01T00:54:08;102431.66;;;-1.96;56.90
7524;BME280;3803;51.666;7.630;2023-03-01T00:54:28;102435.88;;;-1.97;57.13
7524;BME280;3803;51.666;7.630;2023-03-01T00:54:52;102434.97;;;-1.97;57.16
7524;BME280;3803;51.666;7.630;2023-03-01T00:55:12;102434.41;;;-1.95;57.06
7524;BME280;3803;51.666;7.630;2023-03-01T00:55:35;102447.97;;;-1.87;57.07
7524;BME280;3803;51.666;7.630;2023-03-01T00:55:57;102440.41;;;-1.94;56.92
7524;BME280;3803;51.666;7.630;2023-03-01T00:56:18;102437.25;;;-1.91;57.05
7524;BME280;3803;51.666;7.630;2023-03-01T00:56:39;102436.34;;;-1.92;56.84
7524;BME280;3803;51.666;7.630;2023-03-01T00:57:00;102446.75;;;-1.90;56.88
7524;BME280;3803;51.666;7.630;2023-03-01T00:57:20;102431.97;;;-1.93;56.80
7524;BME280;3803;51.666;7.630;2023-03-01T00:57:41;102432.59;;;-1.96;56.79
7524;BME280;3803;51.666;7.630;2023-03-01T00:58:02;102446.75;;;-1.90;57.03
7524;BME280;3803;51.666;7.630;2023-03-01T00:58:23;102437.53;;;-1.97;57.20
7524;BME280;3803;51.666;7.630;2023-03-01T00:58:43;102432.25;;;-1.99;57.10
7524;BME280;3803;51.666;7.630;2023-03-01T00:59:04;102444.28;;;-1.98;57.28
7524;BME280;3803;51.666;7.630;2023-03-01T00:59:25;102445.53;;;-1.94;56.99
7524;BME280;3803;51.666;7.630;2023-03-01T00:59:45;102434.16;;;-2.05;57.01
7524;BME280;3803;51.666;7.630;2023-03-01T01:00:06;102444.28;;;-1.98;57.16
7524;BME280;3803;51.666;7.630;2023-03-01T01:00:27;102453.06;;;-1.96;57.12
7524;BME280;3803;51.666;7.630;2023-03-01T01:00:49;102438.50;;;-2.04;57.11
7524;BME280;3803;51.666;7.630;2023-03-01T01:01:13;102459.97;;;-1.95;56.91
7524;BME280;3803;51.666;7.630;2023-03-01T01:01:39;102433.09;;;-2.07;57.21
7524;BME280;3803;51.666;7.630;2023-03-01T01:02:00;102447.59;;;-1.99;57.08
7524;BME280;3803;51.666;7.630;2023-03-01T01:02:21;102435.34;;;-2.10;57.07
7524;BME280;3803;51.666;7.630;2023-03-01T01:02:41;102430.22;;;-2.10;57.11
7524;BME280;3803;51.666;7.630;2023-03-01T01:03:02;102436.38;;;-2.08;56.88
7524;BME280;3803;51.666;7.630;2023-03-01T01:03:23;102425.50;;;-2.14;56.96
7524;BME280;3803;51.666;7.630;2023-03-01T01:03:50;102437.44;;;-2.06;57.33
7524;BME280;3803;51.666;7.630;2023-03-01T01:04:12;102431.53;;;-2.14;57.14
7524;BME280;3803;51.666;7.630;2023-03-01T01:04:33;102430.03;;;-2.12;57.13
7524;BME280;3803;51.666;7.630;2023-03-01T01:04:53;102424.91;;;-2.12;57.13
7524;BME280;3803;51.666;7.630;2023-03-01T01:05:14;102430.22;;;-2.10;57.26
7524;BME280;3803;51.666;7.630;2023-03-01T01:05:34;102445.78;;;-2.00;57.24
7524;BME280;3803;51.666;7.630;2023-03-01T01:05:55;102448.03;;;-2.03;57.19
7524;BME280;3803;51.666;7.630;2023-03-01T01:06:22;102448.03;;;-2.03;57.14
7524;BME280;3803;51.666;7.630;2023-03-01T01:06:46;102430.97;;;-2.11;57.11
7524;BME280;3803;51.666;7.630;2023-03-01T01:07:07;102430.22;;;-2.10;57.24
7524;BME280;3803;51.666;7.630;2023-03-01T01:07:27;102440.00;;;-2.06;57.20
7524;BME280;3803;51.666;7.630;2023-03-01T01:07:48;102439.34;;;-2.12;57.38
7524;BME280;3803;51.666;7.630;2023-03-01T01:08:08;102428.63;;;-2.17;57.21
7524;BME280;3803;51.666;7.630;2023-03-01T01:08:29;102431.53;;;-2.14;57.22
7524;BME280;3803;51.666;7.630;2023-03-01T01:08:51;102419.16;;;-2.18;57.29
7524;BME280;3803;51.666;7.630;2023-03-01T01:09:14;102422.63;;;-2.17;57.74
7524;BME280;3803;51.666;7.630;2023-03-01T01:09:37;102439.25;;;-2.05;57.35
7524;BME280;3803;51.666;7.630;2023-03-01T01:09:58;102424.75;;;-2.13;57.39
7524;BME280;3803;51.666;7.630;2023-03-01T01:10:19;102433.09;;;-2.07;57.50
7524;BME280;3803;51.666;7.630;2023-03-01T01:10:39;102438.19;;;-2.07;57.59
7524;BME280;3803;51.666;7.630;2023-03-01T01:11:00;102425.50;;;-2.14;57.29
7524;BME280;3803;51.666;7.630;2023-03-01T01:11:23;102415.84;;;-2.17;57.22
7524;BME280;3803;51.666;7.630;2023-03-01T01:11:46;102424.34;;;-2.09;57.35
7524;BME280;3803;51.666;7.630;2023-03-01T01:12:08;102420.72;;;-2.11;57.17
7524;BME280;3803;51.666;7.630;2023-03-01T01:12:28;102418.00;;;-2.13;57.44
7524;BME280;3803;51.666;7.630;2023-03-01T01:12:49;102431.44;;;-2.06;57.46
7524;BME280;3803;51.666;7.630;2023-03-01T01:13:09;102416.75;;;-2.16;57.41
7524;BME280;3803;51.666;7.630;2023-03-01T01:13:30;102427.16;;;-2.15;57.18
7524;BME280;3803;51.666;7.630;2023-03-01T01:13:51;102417.81;;;-2.14;57.43
7524;BME280;3803;51.666;7.630;2023-03-01T01:14:12;102440.34;;;-2.03;57.44
7524;BME280;3803;51.666;7.630;2023-03-01T01:14:33;102424.00;;;-2.12;57.39
7524;BME280;3803;51.666;7.630;2023-03-01T01:14:54;102425.66;;;-2.13;57.67
7524;BME280;3803;51.666;7.630;2023-03-01T01:15:14;102425.00;;;-2.19;57.53
7524;BME280;3803;51.666;7.630;2023-03-01T01:15:36;102426.25;;;-2.15;57.32
7524;BME280;3803;51.666;7.630;2023-03-01T01:16:01;102412.78;;;-2.22;57.72
7524;BME280;3803;51.666;7.630;2023-03-01T01:16:23;102430.63;;;-2.14;57.61
7524;BME280;3803;51.666;7.630;2023-03-01T01:16:44;102433.91;;;-2.15;57.70
7524;BME280;3803;51.666;7.630;2023-03-01T01:17:05;102434.84;;;-2.15;57.74
7524;BME280;3803;51.666;7.630;2023-03-01T01:17:26;102422.28;;;-2.20;57.78
7524;BME280;3803;51.666;7.630;2023-03-01T01:17:46;102426.34;;;-2.23;57.71
7524;BME280;3803;51.666;7.630;2023-03-01T01:18:07;102421.97;;;-2.24;57.80
7524;BME280;3803;51.666;7.630;2023-03-01T01:18:27;102439.63;;;-2.18;57.67
7524;BME280;3803;51.666;7.630;2023-03-01T01:18:48;102421.66;;;-2.27;57.86
7524;BME280;3803;51.666;7.630;2023-03-01T01:19:10;102427.25;;;-2.22;57.74
7524;BME280;3803;51.666;7.630;2023-03-01T01:19:31;102423.13;;;-2.29;57.49
7524;BME280;3803;51.666;7.630;2023-03-01T01:19:52;102417.69;;;-2.32;57.81
7524;BME280;3803;51.666;7.630;2023-03-01T01:20:13;102428.72;;;-2.24;57.84
7524;BME280;3803;51.666;7.630;2023-03-01T01:20:35;102433.25;;;-2.22;57.60
7524;BME280;3803;51.666;7.630;2023-03-01T01:20:56;102418.75;;;-2.30;57.59
7524;BME280;3803;51.666;7.630;2023-03-01T01:21:18;102428.56;;;-2.26;57.84
7524;BME280;3803;51.666;7.630;2023-03-01T01:21:39;102417.50;;;-2.33;57.86
7524;BME280;3803;51.666;7.630;2023-03-01T01:21:59;102434.59;;;-2.25;57.75
7524;BME280;3803;51.666;7.630;2023-03-01T01:22:20;102421.00;;;-2.33;57.69
7524;BME280;3803;51.666;7.630;2023-03-01T01:22:40;102414.06;;;-2.34;57.91
7524;BME280;3803;51.666;7.630;2023-03-01T01:23:01;102421.31;;;-2.30;57.66
7524;BME280;3803;51.666;7.630;2023-03-01T01:23:22;102424.91;;;-2.28;57.59
7524;BME280;3803;51.666;7.630;2023-03-01T01:23:44;102429.06;;;-2.21;57.68
7524;BME280;3803;51.666;7.630;2023-03-01T01:24:06;102425.84;;;-2.27;57.76
7524;BME280;3803;51.666;7.630;2023-03-01T01:24:26;102427.81;;;-2.25;57.76
7524;BME280;3803;51.666;7.630;2023-03-01T01:24:47;102429.91;;;-2.29;57.61
7524;BME280;3803;51.666;7.630;2023-03-01T01:25:08;102426.59;;;-2.28;57.78
7524;BME280;3803;51.666;7.630;2023-03-01T01:25:29;102421.75;;;-2.34;57.99
7524;BME280;3803;51.666;7.630;2023-03-01T01:25:49;102421.75;;;-2.34;57.72
7524;BME280;3803;51.666;7.630;2023-03-01T01:26:18;102419.94;;;-2.35;58.14
7524;BME280;3803;51.666;7.630;2023-03-01T01:26:40;102413.72;;;-2.37;58.31
7524;BME280;3803;51.666;7.630;2023-03-01T01:27:01;102427.47;;;-2.28;57.81
7524;BME280;3803;51.666;7.630;2023-03-01T01:27:21;102418.44;;;-2.33;57.73
7524;BME280;3803;51.666;7.630;2023-03-01T01:27:42;102418.75;;;-2.30;57.84
7524;BME280;3803;51.666;7.630;2023-03-01T01:28:03;102420.25;;;-2.32;57.50
7524;BME280;3803;51.666;7.630;2023-03-01T01:28:23;102420.63;;;-2.36;58.12
7524;BME280;3803;51.666;7.630;2023-03-01T01:28:44;102431.78;;;-2.36;58.03
7524;BME280;3803;51.666;7.630;2023-03-01T01:29:05;102416.53;;;-2.43;57.72
7524;BME280;3803;51.666;7.630;2023-03-01T01:29:26;102430.16;;;-2.35;57.87
7524;BME280;3803;51.666;7.630;2023-03-01T01:29:46;102417.44;;;-2.42;57.80
7524;BME280;3803;51.666;7.630;2023-03-01T01:30:07;102422.88;;;-2.39;57.98
7524;BME280;3803;51.666;7.630;2023-03-01T01:30:28;102433.59;;;-2.34;57.78
7524;BME280;3803;51.666;7.630;2023-03-01T01:30:49;102433.78;;;-2.33;58.24
7524;BME280;3803;51.666;7.630;2023-03-01T01:31:09;102431.97;;;-2.34;57.79
7524;BME280;3803;51.666;7.630;2023-03-01T01:31:31;102434.09;;;-2.30;58.08
7524;BME280;3803;51.666;7.630;2023-03-01T01:31:51;102407.97;;;-2.43;58.23
7524;BME280;3803;51.666;7.630;2023-03-01T01:32:12;102433.03;;;-2.32;57.92
7524;BME280;3803;51.666;7.630;2023-03-01T01:32:32;102428.31;;;-2.36;57.99
7524;BME280;3803;51.666;7.630;2023-03-01T01:32:53;102415.63;;;-2.43;58.22
7524;BME280;3803;51.666;7.630;2023-03-01T01:33:13;102420.31;;;-2.39;57.78
7524;BME280;3803;51.666;7.630;2023-03-01T01:33:46;102409.59;;;-2.44;58.02
7524;BME280;3803;51.666;7.630;2023-03-01T01:34:11;102431.38;;;-2.31;58.11
7524;BME280;3803;51.666;7.630;2023-03-01T01:34:38;102414.16;;;-2.41;58.14
7524;BME280;3803;51.666;7.630;2023-03-01T01:34:59;102421.97;;;-2.40;58.29
7524;BME280;3803;51.666;7.630;2023-03-01T01:35:19;102438.88;;;-2.33;58.22
7524;BME280;3803;51.666;7.630;2023-03-01T01:35:40;102436.50;;;-2.31;58.01
7524;BME280;3803;51.666;7.630;2023-03-01T01:36:01;102420.31;;;-2.39;58.05
7524;BME280;3803;51.666;7.630;2023-03-01T01:36:22;102429.41;;;-2.34;58.11
7524;BME280;3803;51.666;7.630;2023-03-01T01:36:43;102437.41;;;-2.31;57.99
7524;BME280;3803;51.666;7.630;2023-03-01T01:37:04;102431.63;;;-2.37;58.00
7524;BME280;3803;51.666;7.630;2023-03-01T01:37:28;102429.97;;;-2.37;57.98
7524;BME280;3803;51.666;7.630;2023-03-01T01:37:51;102433.59;;;-2.34;58.19
7524;BME280;3803;51.666;7.630;2023-03-01T01:38:12;102418.50;;;-2.40;58.12
7524;BME280;3803;51.666;7.630;2023-03-01T01:38:33;102429.41;;;-2.34;58.10
7524;BME280;3803;51.666;7.630;2023-03-01T01:38:54;102447.31;;;-2.34;57.89
7524;BME280;3803;51.666;7.630;2023-03-01T01:39:15;102417.66;;;-2.48;57.82
7524;BME280;3803;51.666;7.630;2023-03-01T01:39:36;102434.59;;;-2.41;58.32
7524;BME280;3803;51.666;7.630;2023-03-01T01:39:58;102435.84;;;-2.38;58.16
7524;BME280;3803;51.666;7.630;2023-03-01T01:40:19;102435.19;;;-2.44;58.35
7524;BME280;3803;51.666;7.630;2023-03-01T01:40:46;102430.25;;;-2.42;58.16
7524;BME280;3803;51.666;7.630;2023-03-01T01:41:07;102420.09;;;-2.50;58.08
7524;BME280;3803;51.666;7.630;2023-03-01T01:41:29;102431.88;;;-2.43;58.17
7524;BME280;3803;51.666;7.630;2023-03-01T01:41:49;102415.53;;;-2.52;58.07
7524;BME280;3803;51.666;7.630;2023-03-01T01:42:17;102402.28;;;-2.57;58.20
7524;BME280;3803;51.666;7.630;2023-03-01T01:42:39;102409.19;;;-2.56;58.08
7524;BME280;3803;51.666;7.630;2023-03-01T01:42:59;102425.69;;;-2.45;58.39
7524;BME280;3803;51.666;7.630;2023-03-01T01:43:22;102424.78;;;-2.45;58.13
7524;BME280;3803;51.666;7.630;2023-03-01T01:43:45;102405.00;;;-2.55;58.38
7524;BME280;3803;51.666;7.630;2023-03-01T01:44:26;102422.97;;;-2.46;58.21
7524;BME280;3803;51.666;7.630;2023-03-01T01:44:47;102425.53;;;-2.46;58.36
7524;BME280;3803;51.666;7.630;2023-03-01T01:45:35;102423.72;;;-2.47;58.23
7524;BME280;3803;51.666;7.630;2023-03-01T01:46:01;102414.47;;;-2.54;58.36
7524;BME280;3803;51.666;7.630;2023-03-01T01:46:31;102415.88;;;-2.49;58.53
7524;BME280;3803;51.666;7.630;2023-03-01T01:47:03;102419.84;;;-2.44;58.53
7524;BME280;3803;51.666;7.630;2023-03-01T01:47:32;102424.03;;;-2.44;58.50
7524;BME280;3803;51.666;7.630;2023-03-01T01:47:54;102430.06;;;-2.44;58.55
7524;BME280;3803;51.666;7.630;2023-03-01T01:48:21;102414.72;;;-2.44;58.50
7524;BME280;3803;51.666;7.630;2023-03-01T01:48:48;102413.66;;;-2.46;58.30
7524;BME280;3803;51.666;7.630;2023-03-01T01:49:40;102420.63;;;-2.36;58.38
7524;BME280;3803;51.666;7.630;2023-03-01T01:50:02;102397.81;;;-2.51;58.19
7524;BME280;3803;51.666;7.630;2023-03-01T01:50:23;102412.34;;;-2.42;58.30
7524;BME280;3803;51.666;7.630;2023-03-01T01:50:44;102414.47;;;-2.38;58.21
7524;BME280;3803;51.666;7.630;2023-03-01T01:51:06;102396.34;;;-2.48;58.02
7524;BME280;3803;51.666;7.630;2023-03-01T01:51:31;102415.97;;;-2.40;58.22
7524;BME280;3803;51.666;7.630;2023-03-01T01:52:03;102419.75;;;-2.37;57.95
7524;BME280;3803;51.666;7.630;2023-03-01T01:52:31;102402.25;;;-2.41;57.99
7524;BME280;3803;51.666;7.630;2023-03-01T01:52:54;102403.56;;;-2.44;58.00
7524;BME280;3803;51.666;7.630;2023-03-01T01:53:18;102411.72;;;-2.40;58.17
7524;BME280;3803;51.666;7.630;2023-03-01T01:53:39;102407.53;;;-2.39;58.50
7524;BME280;3803;51.666;7.630;2023-03-01T01:54:01;102383.19;;;-2.52;58.13
7524;BME280;3803;51.666;7.630;2023-03-01T01:55:20;102394.84;;;-2.46;58.12
7524;BME280;3803;51.666;7.630;2023-03-01T01:55:47;102405.91;;;-2.39;58.24
7524;BME280;3803;51.666;7.630;2023-03-01T01:56:10;102405.72;;;-2.40;58.25
7524;BME280;3803;51.666;7.630;2023-03-01T01:56:33;102391.78;;;-2.51;57.88
7524;BME280;3803;51.666;7.630;2023-03-01T01:57:00;102389.41;;;-2.50;57.93
7524;BME280;3803;51.666;7.630;2023-03-01T01:57:31;102395.59;;;-2.47;58.28
7524;BME280;3803;51.666;7.630;2023-03-01T01:57:58;102403.91;;;-2.41;58.01
7524;BME280;3803;51.666;7.630;2023-03-01T01:58:21;102389.22;;;-2.51;58.13
7524;BME280;3803;51.666;7.630;2023-03-01T01:58:43;102406.88;;;-2.45;58.23
7524;BME280;3803;51.666;7.630;2023-03-01T01:59:05;102403.56;;;-2.44;57.99
7524;BME280;3803;51.666;7.630;2023-03-01T01:59:28;102385.44;;;-2.55;58.02
7524;BME280;3803;51.666;7.630;2023-03-01T01:59:53;102394.16;;;-2.53;58.07